Time;durP1;ratioP1;P1;durP2;ratioP2;P2;SDS_P1;SDS_P2;PMS_P1;PMS_P2;Temp;Humidity;BMP_temperature;BMP_pressure;BME280_temperature;BME280_humidity;BME280_pressure;Samples;Min_cycle;Max_cycle;Signal;HPM_P1;HPM_P2
2023/06/07 00:01:36;;;;;;;0.40;0.30;;;;;;;17.78;100.00;95533.94;5112048;28;20440;-63
2023/06/07 00:04:06;;;;;;;0.40;0.20;;;;;;;17.78;100.00;95540.06;5112633;28;20501;-63
2023/06/07 00:06:34;;;;;;;0.40;0.40;;;;;;;17.82;100.00;95531.41;5111737;28;20442;-63
2023/06/07 00:09:04;;;;;;;0.40;0.30;;;;;;;17.44;100.00;95534.50;5112224;28;20436;-63
2023/06/07 00:11:33;;;;;;;0.70;0.60;;;;;;;17.37;100.00;95538.72;5111997;28;20445;-62
2023/06/07 00:14:01;;;;;;;0.40;0.30;;;;;;;17.10;100.00;95534.28;5112244;28;20479;-63
2023/06/07 00:16:29;;;;;;;0.50;0.40;;;;;;;17.15;100.00;95516.19;5112477;28;20451;-62
2023/06/07 00:18:58;;;;;;;0.60;0.60;;;;;;;17.37;100.00;95526.13;5112382;28;20447;-63
2023/06/07 00:21:27;;;;;;;1.23;0.33;;;;;;;17.49;100.00;95529.00;5112290;28;20775;-62
2023/06/07 00:23:55;;;;;;;0.47;0.30;;;;;;;17.59;100.00;95531.47;5112380;28;20439;-62
2023/06/07 00:26:25;;;;;;;0.40;0.20;;;;;;;17.60;100.00;95526.91;5111643;28;20432;-62
2023/06/07 00:28:54;;;;;;;1.07;0.30;;;;;;;17.69;100.00;95531.19;5111769;28;20472;-63
2023/06/07 00:31:22;;;;;;;0.40;0.30;;;;;;;17.66;100.00;95523.75;5111826;28;20435;-63
2023/06/07 00:33:50;;;;;;;0.83;0.83;;;;;;;17.61;100.00;95531.94;5111732;28;20444;-62
2023/06/07 00:36:19;;;;;;;0.40;0.20;;;;;;;17.44;100.00;95529.16;5111122;28;20471;-62
2023/06/07 00:38:47;;;;;;;0.40;0.30;;;;;;;16.95;100.00;95515.91;5111540;28;20439;-62
2023/06/07 00:41:15;;;;;;;0.70;0.70;;;;;;;16.97;100.00;95519.88;5112139;28;20439;-62
2023/06/07 00:43:45;;;;;;;0.50;0.30;;;;;;;16.81;100.00;95523.19;5111836;28;20436;-62
2023/06/07 00:46:14;;;;;;;3.20;0.50;;;;;;;16.31;100.00;95517.84;5119803;28;21093;-61
2023/06/07 00:48:43;;;;;;;0.50;0.40;;;;;;;16.60;100.00;95519.38;5111687;28;20790;-60
2023/06/07 00:51:11;;;;;;;0.53;0.53;;;;;;;16.37;100.00;95526.53;5112422;28;20808;-61
2023/06/07 00:53:40;;;;;;;0.43;0.30;;;;;;;16.24;100.00;95517.44;5111420;28;20443;-61
2023/06/07 00:56:09;;;;;;;0.53;0.50;;;;;;;16.17;100.00;95505.56;5111590;28;20475;-61
2023/06/07 00:58:38;;;;;;;0.60;0.60;;;;;;;16.41;100.00;95509.59;5111556;28;20442;-61
2023/06/07 01:01:09;;;;;;;0.40;0.20;;;;;;;16.79;100.00;95515.47;5111940;28;20469;-61
2023/06/07 01:03:38;;;;;;;0.40;0.30;;;;;;;16.63;100.00;95468.72;5111752;28;20435;-61
2023/06/07 01:06:07;;;;;;;0.50;0.40;;;;;;;16.97;100.00;95508.38;5111880;28;20436;-61
2023/06/07 01:08:35;;;;;;;0.40;0.20;;;;;;;17.09;100.00;95505.91;5111646;28;20436;-61
2023/06/07 01:11:06;;;;;;;0.50;0.30;;;;;;;16.99;100.00;95500.81;5111651;28;20439;-61
2023/06/07 01:13:35;;;;;;;0.40;0.30;;;;;;;16.90;100.00;95498.06;5111651;28;20438;-61
2023/06/07 01:16:03;;;;;;;0.40;0.30;;;;;;;16.97;100.00;95503.81;5111401;28;20523;-61
2023/06/07 01:18:33;;;;;;;0.40;0.40;;;;;;;17.00;100.00;95505.09;5111431;28;21112;-61
2023/06/07 01:21:04;;;;;;;0.40;0.30;;;;;;;17.03;100.00;95502.56;5111337;28;20451;-60
2023/06/07 01:23:36;;;;;;;0.50;0.30;;;;;;;16.88;100.00;95500.25;5111261;28;20448;-61
2023/06/07 01:26:05;;;;;;;3.10;0.40;;;;;;;16.84;100.00;95501.97;5111214;28;20439;-61
2023/06/07 01:28:35;;;;;;;0.40;0.20;;;;;;;16.89;100.00;95503.72;5111402;28;20528;-61
2023/06/07 01:31:03;;;;;;;0.40;0.23;;;;;;;16.00;100.00;95426.00;5111218;28;20444;-61
2023/06/07 01:33:33;;;;;;;0.40;0.20;;;;;;;16.45;100.00;95501.75;5111444;28;20943;-61
2023/06/07 01:36:04;;;;;;;0.40;0.20;;;;;;;16.80;100.00;95513.59;5111379;28;20486;-60
2023/06/07 01:38:34;;;;;;;0.40;0.30;;;;;;;16.89;100.00;95511.75;5111457;28;20493;-61
2023/06/07 01:41:03;;;;;;;0.50;0.30;;;;;;;16.68;100.00;95516.78;5110808;28;20947;-61
2023/06/07 01:43:31;;;;;;;38.23;4.50;;;;;;;16.75;100.00;95508.34;5111243;28;20534;-61
2023/06/07 01:46:00;;;;;;;3.23;0.90;;;;;;;16.78;100.00;95499.69;5115023;28;20446;-61
2023/06/07 01:48:28;;;;;;;0.70;0.40;;;;;;;16.62;100.00;95479.75;5114968;28;20794;-61
2023/06/07 01:50:57;;;;;;;1.23;0.30;;;;;;;16.64;100.00;95507.78;5115546;28;20535;-61
2023/06/07 01:53:25;;;;;;;0.40;0.30;;;;;;;16.49;100.00;95508.88;5114780;28;20440;-60
2023/06/07 01:56:04;;;;;;;0.47;0.47;;;;;;;16.54;100.00;95504.56;5115182;28;20507;-61
2023/06/07 01:58:38;;;;;;;0.40;0.20;;;;;;;16.32;100.00;95503.38;5114783;28;20451;-60
2023/06/07 02:01:16;;;;;;;0.40;0.30;;;;;;;16.44;100.00;95505.53;5115006;28;20432;-61
2023/06/07 02:03:51;;;;;;;0.40;0.20;;;;;;;16.32;100.00;95503.38;5114903;28;20431;-61
2023/06/07 02:06:28;;;;;;;0.40;0.20;;;;;;;16.12;100.00;95477.06;5114667;27;20436;-61
2023/06/07 02:09:02;;;;;;;0.87;0.40;;;;;;;16.54;100.00;95509.91;5114229;28;20451;-61
2023/06/07 02:11:32;;;;;;;0.50;0.30;;;;;;;16.37;100.00;95505.13;5114748;28;20891;-61
2023/06/07 02:14:01;;;;;;;0.50;0.30;;;;;;;16.15;100.00;95505.88;5114450;28;20447;-61
2023/06/07 02:16:35;;;;;;;1.03;0.60;;;;;;;16.43;100.00;95510.09;5114050;28;20501;-61
2023/06/07 02:19:06;;;;;;;0.40;0.30;;;;;;;16.62;100.00;95515.31;5113905;28;20454;-61
2023/06/07 02:21:36;;;;;;;2.53;0.60;;;;;;;16.52;100.00;95527.03;5114361;28;20442;-61
2023/06/07 02:24:05;;;;;;;3.70;0.50;;;;;;;16.23;100.00;95509.72;5114098;28;20462;-61
2023/06/07 02:26:36;;;;;;;0.40;0.30;;;;;;;15.91;100.00;95509.88;5114152;28;21001;-61
2023/06/07 02:29:05;;;;;;;0.40;0.30;;;;;;;15.76;100.00;95516.31;5113751;28;20471;-60
2023/06/07 02:31:33;;;;;;;0.60;0.60;;;;;;;15.81;100.00;95503.63;5113949;28;21001;-60
2023/06/07 02:34:01;;;;;;;0.63;0.63;;;;;;;16.12;100.00;95511.03;5113916;28;20458;-60
2023/06/07 02:36:33;;;;;;;0.80;0.30;;;;;;;16.13;100.00;95516.09;5113627;28;20475;-61
2023/06/07 02:39:02;;;;;;;0.50;0.30;;;;;;;16.18;100.00;95525.88;5113779;28;20435;-61
2023/06/07 02:41:30;;;;;;;0.40;0.30;;;;;;;16.06;100.00;95502.34;5114414;28;20471;-61
2023/06/07 02:44:00;;;;;;;0.40;0.30;;;;;;;15.73;100.00;95524.91;5111342;28;20956;-61
2023/06/07 02:46:28;;;;;;;0.47;0.40;;;;;;;15.97;100.00;95522.03;5103667;28;20444;-61
2023/06/07 02:48:57;;;;;;;0.47;0.37;;;;;;;16.13;100.00;95529.47;5113318;28;20527;-60
2023/06/07 02:51:31;;;;;;;0.40;0.30;;;;;;;16.05;100.00;95526.69;5114195;28;20826;-61
2023/06/07 02:54:00;;;;;;;0.40;0.37;;;;;;;16.05;100.00;95534.69;5114166;28;20427;-60
2023/06/07 02:56:30;;;;;;;0.90;0.90;;;;;;;16.03;100.00;95520.84;5119438;28;20528;-60
2023/06/07 02:58:58;;;;;;;0.50;0.30;;;;;;;15.77;100.00;95529.34;5113227;28;20451;-60
2023/06/07 03:01:28;;;;;;;0.43;0.33;;;;;;;15.39;100.00;95527.09;5112997;28;20967;-60
2023/06/07 03:03:56;;;;;;;0.40;0.30;;;;;;;15.57;100.00;95527.06;5113787;28;20431;-60
2023/06/07 03:06:29;;;;;;;0.40;0.30;;;;;;;15.82;100.00;95523.13;5113637;28;20472;-60
2023/06/07 03:08:58;;;;;;;0.60;0.40;;;;;;;15.91;100.00;95523.22;5113488;28;20939;-60
2023/06/07 03:11:26;;;;;;;0.50;0.43;;;;;;;15.79;100.00;95521.03;5113232;28;20534;-60
2023/06/07 03:13:54;;;;;;;0.50;0.30;;;;;;;15.93;100.00;95523.72;5113320;28;20496;-61
2023/06/07 03:16:23;;;;;;;0.40;0.30;;;;;;;16.00;100.00;95521.44;5112970;28;20973;-60
2023/06/07 03:18:53;;;;;;;0.60;0.33;;;;;;;15.93;100.00;95519.16;5113189;28;20439;-61
2023/06/07 03:21:21;;;;;;;1.57;0.33;;;;;;;16.01;100.00;95529.19;5112970;28;20492;-61
2023/06/07 03:23:49;;;;;;;0.40;0.20;;;;;;;16.01;100.00;95517.69;5113104;28;20443;-61
2023/06/07 03:26:19;;;;;;;0.60;0.30;;;;;;;16.00;100.00;95516.88;5112580;28;20428;-61
2023/06/07 03:28:48;;;;;;;0.90;0.40;;;;;;;16.32;100.00;95510.59;5112693;28;20482;-62
2023/06/07 03:31:17;;;;;;;0.40;0.30;;;;;;;16.26;100.00;95514.50;5113055;28;20444;-60
2023/06/07 03:33:45;;;;;;;0.40;0.20;;;;;;;16.04;100.00;95523.22;5112878;28;20977;-60
2023/06/07 03:36:20;;;;;;;0.40;0.30;;;;;;;16.21;100.00;95523.41;5112474;28;20493;-61
2023/06/07 03:38:49;;;;;;;0.60;0.57;;;;;;;16.13;100.00;95517.97;5111765;28;20475;-59
2023/06/07 03:41:17;;;;;;;0.60;0.30;;;;;;;15.83;100.00;95530.84;5112925;28;20850;-61
2023/06/07 03:43:45;;;;;;;0.40;0.37;;;;;;;16.12;100.00;95519.03;5112132;28;20466;-59
2023/06/07 03:46:14;;;;;;;0.40;0.30;;;;;;;16.02;100.00;95524.59;5113069;28;20447;-61
2023/06/07 03:48:42;;;;;;;0.50;0.33;;;;;;;16.04;100.00;95525.13;5112219;28;20974;-59
2023/06/07 03:51:11;;;;;;;1.20;0.70;;;;;;;15.93;100.00;95527.19;5112761;28;20496;-60
2023/06/07 03:53:40;;;;;;;0.50;0.40;;;;;;;16.27;100.00;95524.88;5112753;28;20448;-60
2023/06/07 03:56:09;;;;;;;0.40;0.20;;;;;;;15.93;100.00;95515.69;5112506;28;20448;-60
2023/06/07 03:58:37;;;;;;;0.60;0.57;;;;;;;16.27;100.00;95508.81;5112786;28;20432;-60
2023/06/07 04:01:05;;;;;;;0.40;0.30;;;;;;;16.31;100.00;95517.84;5112370;28;20431;-61
2023/06/07 04:03:34;;;;;;;0.40;0.30;;;;;;;16.12;100.00;95521.72;5111749;28;20443;-60
2023/06/07 04:06:02;;;;;;;2.50;0.30;;;;;;;16.45;100.00;95513.25;5112898;28;20436;-61
2023/06/07 04:08:31;;;;;;;0.40;0.20;;;;;;;16.65;100.00;95514.72;5111634;28;21027;-61
2023/06/07 04:11:01;;;;;;;0.40;0.30;;;;;;;16.81;100.00;95521.31;5112712;28;20498;-62
2023/06/07 04:13:29;;;;;;;0.93;0.50;;;;;;;16.96;100.00;95512.13;5112560;28;20436;-55
2023/06/07 04:15:58;;;;;;;0.53;0.33;;;;;;;16.79;100.00;95494.06;5112022;28;20458;-56
2023/06/07 04:18:26;;;;;;;0.40;0.20;;;;;;;17.07;100.00;95506.25;5112544;28;20915;-56
2023/06/07 04:20:55;;;;;;;0.40;0.30;;;;;;;17.06;100.00;95501.16;5112373;28;20488;-56
2023/06/07 04:23:23;;;;;;;0.50;0.30;;;;;;;17.00;100.00;95503.19;5112478;28;20432;-56
2023/06/07 04:25:55;;;;;;;0.40;0.30;;;;;;;17.37;100.00;95502.00;5111846;28;20496;-56
2023/06/07 04:28:24;;;;;;;0.50;0.43;;;;;;;16.89;100.00;95504.53;5112301;28;20464;-57
2023/06/07 04:30:53;;;;;;;0.40;0.30;;;;;;;16.95;100.00;95491.81;5112021;28;20955;-57
2023/06/07 04:33:22;;;;;;;1.03;0.43;;;;;;;17.35;100.00;95504.19;5112501;28;20443;-57
2023/06/07 04:35:51;;;;;;;0.40;0.30;;;;;;;17.05;100.00;95432.66;5111896;28;20440;-57
2023/06/07 04:38:21;;;;;;;0.50;0.37;;;;;;;17.66;100.00;95502.31;5111650;28;20853;-57
2023/06/07 04:40:51;;;;;;;0.40;0.30;;;;;;;17.62;100.00;95497.91;5111340;28;20447;-57
2023/06/07 04:43:20;;;;;;;0.40;0.30;;;;;;;17.42;100.00;95491.16;5112168;28;20516;-57
2023/06/07 04:45:55;;;;;;;2.50;0.60;;;;;;;17.18;100.00;95498.72;5112134;28;20484;-56
2023/06/07 04:48:25;;;;;;;0.60;0.50;;;;;;;17.21;100.00;95508.84;5111902;28;20939;-56
2023/06/07 04:50:56;;;;;;;2.10;0.63;;;;;;;16.99;100.00;95506.16;5111992;28;20809;-56
2023/06/07 04:53:25;;;;;;;1.00;0.80;;;;;;;16.64;100.00;95509.66;5112152;28;20443;-57
2023/06/07 04:55:53;;;;;;;2.93;0.63;;;;;;;16.92;100.00;95498.56;5111737;28;20519;-57
2023/06/07 04:58:22;;;;;;;0.50;0.50;;;;;;;16.82;100.00;95500.69;5111528;28;21001;-57
2023/06/07 05:00:52;;;;;;;1.37;1.30;;;;;;;16.49;100.00;95510.78;5111975;28;20432;-57
2023/06/07 05:03:22;;;;;;;1.13;1.13;;;;;;;16.17;100.00;95508.25;5111921;28;20463;-57
2023/06/07 05:05:50;;;;;;;3.03;1.03;;;;;;;16.05;100.00;95503.41;5111994;28;20501;-57
2023/06/07 05:08:19;;;;;;;7.00;0.97;;;;;;;15.72;100.00;95509.94;5111530;28;20523;-57
2023/06/07 05:10:48;;;;;;;1.23;0.90;;;;;;;16.05;100.00;95514.09;5111907;28;20947;-57
2023/06/07 05:13:16;;;;;;;1.10;0.97;;;;;;;16.19;100.00;95503.41;5111735;28;20864;-61
2023/06/07 05:15:45;;;;;;;0.53;0.47;;;;;;;17.00;100.00;95503.19;5111885;28;20488;-70
2023/06/07 05:18:18;;;;;;;0.80;0.70;;;;;;;17.44;100.00;95501.56;5111679;28;20827;-64
2023/06/07 05:20:47;;;;;;;0.50;0.30;;;;;;;17.86;100.00;95484.88;5115557;28;20471;-62
2023/06/07 05:23:17;;;;;;;1.37;0.50;;;;;;;18.15;100.00;95495.06;5114930;28;20440;-62
2023/06/07 05:25:46;;;;;;;1.10;1.00;;;;;;;18.03;100.00;95489.53;5116124;28;20439;-60
2023/06/07 05:28:14;;;;;;;0.60;0.50;;;;;;;18.58;100.00;95492.47;5115380;28;20438;-60
2023/06/07 05:30:42;;;;;;;1.00;0.40;;;;;;;18.96;100.00;95494.22;5115740;28;20462;-60
2023/06/07 05:33:11;;;;;;;0.60;0.30;;;;;;;19.01;100.00;95496.75;5088664;28;20448;-59
2023/06/07 05:35:44;;;;;;;0.40;0.30;;;;;;;19.18;100.00;95493.25;5114824;28;20504;-59
2023/06/07 05:38:13;;;;;;;4.00;0.57;;;;;;;19.28;100.00;95484.84;5103665;28;21071;-59
2023/06/07 05:40:43;;;;;;;0.63;0.60;;;;;;;18.74;100.00;95486.34;5115443;28;20951;-60
2023/06/07 05:43:12;;;;;;;2.20;1.33;;;;;;;18.80;100.00;95478.91;5115695;28;20431;-59
2023/06/07 05:45:42;;;;;;;3.90;0.50;;;;;;;18.67;100.00;95487.94;5114908;28;20530;-59
2023/06/07 05:48:10;;;;;;;4.97;2.87;;;;;;;18.42;100.00;95484.06;5115326;28;20496;-58
2023/06/07 05:50:38;;;;;;;0.80;0.70;;;;;;;19.33;100.00;95486.56;5115519;28;20443;-59
2023/06/07 05:53:08;;;;;;;0.60;0.60;;;;;;;19.12;100.00;95483.78;5115064;28;20464;-57
2023/06/07 05:55:38;;;;;;;0.50;0.50;;;;;;;19.83;100.00;95478.69;5101135;28;20436;-57
2023/06/07 05:58:06;;;;;;;5.80;0.50;;;;;;;19.43;89.45;95481.69;5115362;28;20479;-56
2023/06/07 06:00:34;;;;;;;0.60;0.40;;;;;;;19.56;88.53;95483.38;5114736;28;20443;-57
2023/06/07 06:03:04;;;;;;;0.40;0.30;;;;;;;19.75;91.14;95483.00;5115190;28;20838;-57
2023/06/07 06:05:32;;;;;;;0.50;0.30;;;;;;;20.07;90.53;95487.75;5114212;28;20434;-56
2023/06/07 06:08:01;;;;;;;0.80;0.80;;;;;;;20.77;94.31;95487.00;5115169;28;20508;-56
2023/06/07 06:10:30;;;;;;;0.50;0.50;;;;;;;21.21;83.01;95476.66;5114517;28;20970;-56
2023/06/07 06:13:03;;;;;;;0.57;0.57;;;;;;;20.97;83.15;95485.44;5114582;28;20443;-56
2023/06/07 06:15:31;;;;;;;1.13;1.13;;;;;;;20.94;82.04;95482.59;5114705;28;20447;-56
2023/06/07 06:17:59;;;;;;;3.60;0.53;;;;;;;20.19;81.03;95490.53;5114225;28;20493;-55
2023/06/07 06:20:27;;;;;;;0.50;0.50;;;;;;;20.96;84.32;95489.22;5114174;28;20447;-55
2023/06/07 06:22:56;;;;;;;0.40;0.30;;;;;;;21.24;78.50;95481.38;5114545;28;21769;-70
2023/06/07 06:25:25;;;;;;;1.10;0.70;;;;;;;21.42;77.66;95480.91;5114339;28;20440;-63
2023/06/07 06:27:55;;;;;;;1.53;0.60;;;;;;;18.04;75.36;95016.38;5114483;28;20440;-63
2023/06/07 06:30:26;;;;;;;0.50;0.50;;;;;;;21.07;74.60;95479.66;5113657;28;20439;-63
2023/06/07 06:32:54;;;;;;;0.60;0.30;;;;;;;21.33;74.26;95485.56;5114504;28;20444;-62
2023/06/07 06:35:23;;;;;;;0.73;0.67;;;;;;;21.81;72.54;95482.19;5113957;28;20444;-62
2023/06/07 06:37:51;;;;;;;0.50;0.47;;;;;;;21.67;70.58;95483.63;5114328;28;20550;-62
2023/06/07 06:40:21;;;;;;;1.73;0.50;;;;;;;21.16;71.92;95474.16;5114164;28;20447;-63
2023/06/07 06:42:49;;;;;;;0.77;0.77;;;;;;;21.29;72.22;95481.19;5114220;28;20432;-62
2023/06/07 06:45:19;;;;;;;1.27;1.27;;;;;;;21.13;71.91;95427.09;5114129;28;20493;-61
2023/06/07 06:47:48;;;;;;;1.27;0.63;;;;;;;21.90;70.18;95477.50;5113267;28;20439;-63
2023/06/07 06:50:17;;;;;;;0.50;0.50;;;;;;;21.42;68.23;95475.50;5113467;28;20451;-62
2023/06/07 06:53:00;;;;;;;0.40;0.30;;;;;;;21.31;66.53;95458.16;5114199;28;20436;-62
2023/06/07 06:55:30;;;;;;;0.40;0.30;;;;;;;22.05;67.64;95481.44;5114127;28;20501;-62
2023/06/07 06:57:58;;;;;;;0.70;0.70;;;;;;;21.58;68.14;95464.06;5113519;28;20903;-61
2023/06/07 07:00:36;;;;;;;0.53;0.30;;;;;;;22.17;65.07;95465.25;5113273;28;20522;-60
2023/06/07 07:03:04;;;;;;;0.50;0.40;;;;;;;22.67;65.73;95459.44;5113690;28;20923;-60
2023/06/07 07:05:33;;;;;;;0.57;0.30;;;;;;;22.77;63.68;95458.19;5113586;28;20436;-60
2023/06/07 07:08:02;;;;;;;0.60;0.40;;;;;;;23.25;63.51;95453.34;5113482;28;20435;-61
2023/06/07 07:10:31;;;;;;;3.93;0.40;;;;;;;23.62;61.14;95440.44;5113236;28;20481;-62
2023/06/07 07:12:59;;;;;;;0.40;0.40;;;;;;;24.15;62.03;95452.59;5112201;28;20440;-62
2023/06/07 07:15:28;;;;;;;0.50;0.47;;;;;;;24.12;61.89;95457.91;5102353;28;20852;-64
2023/06/07 07:17:57;;;;;;;1.47;1.03;;;;;;;24.30;62.23;95454.47;5114484;28;20873;-64
2023/06/07 07:20:27;;;;;;;0.40;0.30;;;;;;;24.61;57.40;95448.19;5121361;28;20435;-65
2023/06/07 07:22:55;;;;;;;1.20;0.70;;;;;;;24.64;59.64;95452.91;5113690;28;20440;-65
2023/06/07 07:25:24;;;;;;;0.40;0.30;;;;;;;24.48;57.80;95452.16;5113148;28;20974;-64
2023/06/07 07:27:52;;;;;;;1.50;0.77;;;;;;;24.44;58.18;95451.28;5113201;27;20923;-64
2023/06/07 07:30:21;;;;;;;0.70;0.70;;;;;;;24.62;58.31;95442.41;5112955;28;20450;-64
2023/06/07 07:32:49;;;;;;;0.83;0.83;;;;;;;24.24;57.31;95452.38;5113144;28;20440;-63
2023/06/07 07:35:19;;;;;;;0.50;0.50;;;;;;;24.37;57.53;95443.00;5112990;28;20439;-64
2023/06/07 07:37:47;;;;;;;1.43;0.83;;;;;;;24.87;56.49;95439.47;5112565;28;20440;-63
2023/06/07 07:40:17;;;;;;;0.87;0.70;;;;;;;24.83;56.34;95433.97;5112768;28;20475;-65
2023/06/07 07:42:46;;;;;;;2.70;0.50;;;;;;;24.68;55.67;95440.19;5112232;28;20486;-66
2023/06/07 07:45:15;;;;;;;0.40;0.30;;;;;;;25.57;54.65;95427.25;5113135;28;20439;-67
2023/06/07 07:47:45;;;;;;;0.60;0.60;;;;;;;24.87;53.30;95439.47;5106530;28;20436;-66
2023/06/07 07:50:15;;;;;;;1.10;0.97;;;;;;;24.26;51.37;95437.34;5106002;28;20497;-64
2023/06/07 07:52:45;;;;;;;3.27;1.33;;;;;;;24.64;50.67;95437.41;5112546;28;21013;-65
2023/06/07 07:55:14;;;;;;;1.53;0.63;;;;;;;25.63;51.39;95430.44;5112804;28;20440;-65
2023/06/07 07:57:43;;;;;;;0.40;0.30;;;;;;;25.94;49.29;95435.63;5112221;28;20440;-66
2023/06/07 08:00:15;;;;;;;2.10;0.50;;;;;;;25.78;50.10;95424.88;5112061;28;20480;-66
2023/06/07 08:02:44;;;;;;;0.80;0.50;;;;;;;25.27;50.91;95431.72;5112970;28;20471;-66
2023/06/07 08:05:13;;;;;;;0.50;0.40;;;;;;;25.81;50.16;95431.53;5112205;28;20515;-65
2023/06/07 08:07:41;;;;;;;0.90;0.40;;;;;;;26.19;49.35;95427.88;5112533;28;20435;-65
2023/06/07 08:10:11;;;;;;;0.30;0.20;;;;;;;26.65;49.65;95418.44;5112071;28;20432;-65
2023/06/07 08:12:40;;;;;;;1.10;0.53;;;;;;;26.80;49.24;95406.63;5112450;28;21004;-64
2023/06/07 08:15:10;;;;;;;0.60;0.60;;;;;;;26.30;49.40;95421.47;5112287;28;20500;-68
2023/06/07 08:17:39;;;;;;;0.40;0.40;;;;;;;26.79;49.21;95407.75;5112653;28;20440;-65
2023/06/07 08:20:09;;;;;;;0.50;0.40;;;;;;;26.75;52.59;95406.13;5112026;28;21025;-64
2023/06/07 08:22:38;;;;;;;3.53;0.40;;;;;;;26.51;50.76;95410.09;5112123;28;20443;-62
2023/06/07 08:25:07;;;;;;;0.50;0.40;;;;;;;27.05;52.11;95407.69;5111983;28;20447;-62
2023/06/07 08:27:37;;;;;;;1.17;1.17;;;;;;;26.45;49.46;95406.91;5111527;28;20479;-62
2023/06/07 08:30:07;;;;;;;0.57;0.57;;;;;;;26.06;49.19;95408.25;5112126;28;20471;-63
2023/06/07 08:32:36;;;;;;;0.47;0.40;;;;;;;27.36;47.88;95406.47;5112198;28;20522;-62
2023/06/07 08:35:05;;;;;;;0.50;0.43;;;;;;;28.36;47.21;95389.78;5112147;28;20440;-63
2023/06/07 08:37:33;;;;;;;0.67;0.43;;;;;;;28.60;47.30;95397.34;5112094;28;20435;-63
2023/06/07 08:40:04;;;;;;;0.60;0.60;;;;;;;27.64;46.91;95395.09;5111852;28;21002;-63
2023/06/07 08:42:33;;;;;;;0.87;0.87;;;;;;;27.78;46.95;95389.75;5112147;28;20477;-63
2023/06/07 08:45:04;;;;;;;0.70;0.57;;;;;;;28.18;46.58;95405.28;5111750;28;21076;-64
2023/06/07 08:47:34;;;;;;;0.87;0.70;;;;;;;27.37;46.50;95393.66;5111974;28;20943;-64
2023/06/07 08:50:03;;;;;;;2.57;0.30;;;;;;;27.70;46.23;95396.31;5111950;28;20444;-64
2023/06/07 08:52:32;;;;;;;0.50;0.40;;;;;;;27.53;46.55;95394.97;5111718;28;20435;-63
2023/06/07 08:55:05;;;;;;;0.53;0.53;;;;;;;28.47;46.14;95398.81;5116176;28;20492;-63
2023/06/07 08:57:34;;;;;;;8.60;0.73;;;;;;;27.67;46.44;95397.06;5090462;28;20476;-63
2023/06/07 09:00:06;;;;;;;1.17;0.70;;;;;;;27.46;46.95;95396.84;5115990;28;20474;-64
2023/06/07 09:02:36;;;;;;;0.30;0.30;;;;;;;28.29;45.53;95397.94;5116325;28;21037;-64
2023/06/07 09:05:06;;;;;;;0.50;0.40;;;;;;;29.43;45.53;95392.59;5115585;28;20963;-63
2023/06/07 09:07:35;;;;;;;0.40;0.30;;;;;;;28.12;43.73;95395.88;5116406;28;20446;-64
2023/06/07 09:10:04;;;;;;;0.67;0.67;;;;;;;28.22;44.09;95395.94;5115650;28;20447;-64
2023/06/07 09:12:32;;;;;;;0.50;0.50;;;;;;;29.66;43.29;95389.50;5115465;28;20439;-63
2023/06/07 09:15:01;;;;;;;0.63;0.63;;;;;;;29.64;42.36;95378.19;5115556;28;20443;-63
2023/06/07 09:17:51;;;;;;;0.50;0.50;;;;;;;29.72;42.72;95378.97;5116094;28;20435;-63
2023/06/07 09:20:21;;;;;;;1.00;1.00;;;;;;;29.91;43.22;95376.66;5092476;28;20483;-63
2023/06/07 09:23:04;;;;;;;0.50;0.30;;;;;;;30.43;43.37;95366.84;5115523;28;20440;-63
2023/06/07 09:25:32;;;;;;;0.30;0.20;;;;;;;30.11;43.86;95371.56;5115621;28;20518;-63
2023/06/07 09:28:03;;;;;;;1.10;0.90;;;;;;;29.65;43.80;95365.31;5115280;28;20445;-63
2023/06/07 09:30:32;;;;;;;12.33;0.67;;;;;;;29.87;44.49;95373.16;5107830;28;20843;-63
2023/06/07 09:33:02;;;;;;;0.53;0.40;;;;;;;30.92;41.72;95359.63;5115453;28;20964;-64
2023/06/07 09:35:31;;;;;;;4.00;1.10;;;;;;;30.06;42.57;95353.59;5127450;28;20449;-63
2023/06/07 09:38:00;;;;;;;1.40;0.83;;;;;;;28.85;44.77;95360.06;5119535;28;20435;-63
2023/06/07 09:40:29;;;;;;;1.03;0.67;;;;;;;29.26;45.43;95351.59;5115461;28;20489;-64
2023/06/07 09:42:59;;;;;;;5.33;0.80;;;;;;;29.80;45.61;95359.50;5115452;28;20491;-64
2023/06/07 09:45:28;;;;;;;0.50;0.40;;;;;;;30.21;44.77;95345.38;5115538;28;20438;-63
2023/06/07 09:48:06;;;;;;;0.57;0.57;;;;;;;30.33;44.61;95351.22;5115452;28;20431;-64
2023/06/07 09:50:34;;;;;;;0.40;0.30;;;;;;;30.72;45.40;95340.16;5115155;28;20427;-64
2023/06/07 09:53:03;;;;;;;0.50;0.30;;;;;;;30.59;44.24;95337.06;5114826;28;20439;-65
2023/06/07 09:55:31;;;;;;;0.43;0.37;;;;;;;30.58;43.84;95346.47;5114708;28;20514;-64
2023/06/07 09:57:59;;;;;;;0.47;0.30;;;;;;;29.73;45.36;95345.78;5115045;28;20435;-65
2023/06/07 10:00:28;;;;;;;0.50;0.40;;;;;;;30.54;44.51;95345.69;5109429;28;21000;-64
2023/06/07 10:03:09;;;;;;;0.50;0.50;;;;;;;30.05;44.83;95340.34;5106886;28;20439;-64
2023/06/07 10:05:38;;;;;;;0.60;0.60;;;;;;;30.24;43.48;95339.09;5113989;28;20435;-64
2023/06/07 10:08:09;;;;;;;0.40;0.30;;;;;;;30.31;41.58;95341.84;5114922;28;20456;-65
2023/06/07 10:10:41;;;;;;;0.50;0.40;;;;;;;30.74;42.79;95321.38;5114856;28;20443;-63
2023/06/07 10:13:12;;;;;;;0.40;0.40;;;;;;;30.29;40.76;95341.44;5114448;28;20909;-64
2023/06/07 10:15:45;;;;;;;0.90;0.50;;;;;;;30.77;40.60;95329.56;5114241;28;20435;-64
2023/06/07 10:18:18;;;;;;;0.60;0.60;;;;;;;32.19;39.15;95326.66;5114489;28;20443;-63
2023/06/07 10:20:56;;;;;;;0.60;0.30;;;;;;;32.44;39.08;95327.16;5114339;28;20470;-64
2023/06/07 10:23:32;;;;;;;3.00;0.50;;;;;;;32.03;39.37;95329.16;5087518;28;21002;-64
2023/06/07 10:26:13;;;;;;;0.40;0.30;;;;;;;32.24;37.99;95322.66;5114479;28;20438;-64
2023/06/07 10:28:50;;;;;;;0.40;0.40;;;;;;;30.91;38.26;95322.50;5114818;28;20435;-64
2023/06/07 10:31:24;;;;;;;0.40;0.40;;;;;;;32.32;39.61;95315.94;5114290;28;20435;-64
2023/06/07 10:33:57;;;;;;;0.40;0.30;;;;;;;32.63;36.39;95315.59;5114346;28;20511;-63
2023/06/07 10:36:26;;;;;;;0.50;0.40;;;;;;;31.65;37.67;95311.09;5114276;28;20917;-64
2023/06/07 10:38:56;;;;;;;0.50;0.50;;;;;;;31.32;37.65;95315.22;5114349;28;20470;-64
2023/06/07 10:41:26;;;;;;;1.17;0.73;;;;;;;30.73;37.43;95315.16;5114346;28;20467;-65
2023/06/07 10:43:55;;;;;;;0.40;0.30;;;;;;;29.88;36.27;95311.84;5113286;28;20439;-65
2023/06/07 10:46:24;;;;;;;0.80;0.47;;;;;;;29.02;36.86;95306.69;5114171;28;20443;-65
2023/06/07 10:48:55;;;;;;;0.53;0.53;;;;;;;29.19;38.08;95303.22;5113535;28;21072;-64
2023/06/07 10:52:00;;;;;;;1.10;0.50;;;;;;;28.66;38.70;95319.47;5113746;28;20440;-65
2023/06/07 10:54:33;;;;;;;0.40;0.30;;;;;;;30.21;37.44;95316.06;5113589;28;20434;-64
2023/06/07 10:57:03;;;;;;;0.50;0.50;;;;;;;29.00;36.87;95302.78;5113526;28;20844;-65
2023/06/07 10:59:32;;;;;;;0.70;0.50;;;;;;;28.85;36.44;95310.94;5113474;28;20439;-65
2023/06/07 11:02:24;;;;;;;1.90;0.40;;;;;;;29.00;37.67;95264.56;5112905;28;20574;-65
2023/06/07 11:04:56;;;;;;;0.50;0.50;;;;;;;28.83;37.58;95291.47;5107932;28;20500;-59
2023/06/07 11:07:27;;;;;;;0.63;0.60;;;;;;;28.91;38.63;95306.69;5113832;28;20443;-68
2023/06/07 11:10:33;;;;;;;1.13;0.70;;;;;;;28.79;37.16;95287.91;5112914;28;20442;-67
2023/06/07 11:13:03;;;;;;;0.40;0.30;;;;;;;29.37;38.43;95293.09;5113280;28;20876;-67
2023/06/07 11:15:35;;;;;;;0.73;0.70;;;;;;;29.43;36.44;95288.81;5113342;28;20837;-68
2023/06/07 11:18:07;;;;;;;0.60;0.30;;;;;;;28.77;35.14;95240.38;5113124;28;20454;-68
2023/06/07 11:20:52;;;;;;;0.50;0.50;;;;;;;29.69;37.26;95284.13;5112915;28;20553;-67
2023/06/07 11:23:25;;;;;;;0.53;0.40;;;;;;;28.92;33.84;95192.84;5112942;28;20446;-67
2023/06/07 11:26:00;;;;;;;0.97;0.93;;;;;;;30.23;34.66;95280.16;5112531;28;20500;-68
2023/06/07 11:28:31;;;;;;;0.47;0.40;;;;;;;30.17;34.89;95275.09;5112907;28;20442;-67
2023/06/07 11:31:01;;;;;;;0.40;0.30;;;;;;;30.20;36.00;95265.31;5113205;28;20435;-64
2023/06/07 11:33:30;;;;;;;0.40;0.40;;;;;;;30.68;35.58;95268.25;5113552;28;20439;-67
2023/06/07 11:36:00;;;;;;;0.67;0.50;;;;;;;30.42;34.11;95276.97;5112689;28;20478;-67
2023/06/07 11:38:29;;;;;;;0.60;0.40;;;;;;;30.14;35.37;95270.41;5112892;28;20441;-67
2023/06/07 11:40:57;;;;;;;0.43;0.43;;;;;;;30.56;34.04;95271.44;5112282;28;20479;-67
2023/06/07 11:43:28;;;;;;;0.40;0.40;;;;;;;30.49;34.90;95252.31;5113406;28;20443;-67